sensor_id;sensor_type;location;lat;lon;timestamp;temperature;humidity
3784;DHT22;1907;49.238;9.262;2023-01-04T00:00:34;3.20;99.90
3784;DHT22;1907;49.238;9.262;2023-01-04T00:02:59;3.20;99.90
3784;DHT22;1907;49.238;9.262;2023-01-04T00:05:25;3.20;99.90
3784;DHT22;1907;49.238;9.262;2023-01-04T00:07:50;3.10;99.90
3784;DHT22;1907;49.238;9.262;2023-01-04T00:10:16;3.00;99.90
3784;DHT22;1907;49.238;9.262;2023-01-04T00:12:42;3.00;99.90
3784;DHT22;1907;49.238;9.262;2023-01-04T00:15:08;3.00;99.90
3784;DHT22;1907;49.238;9.262;2023-01-04T00:17:33;3.00;99.90
3784;DHT22;1907;49.238;9.262;2023-01-04T00:19:59;2.90;99.90
3784;DHT22;1907;49.238;9.262;2023-01-04T00:22:24;3.00;99.90
3784;DHT22;1907;49.238;9.262;2023-01-04T00:24:50;3.00;99.90
3784;DHT22;1907;49.238;9.262;2023-01-04T00:27:16;2.90;99.90
3784;DHT22;1907;49.238;9.262;2023-01-04T00:29:41;2.90;99.90
3784;DHT22;1907;49.238;9.262;2023-01-04T00:32:07;2.80;99.90
3784;DHT22;1907;49.238;9.262;2023-01-04T00:34:32;2.80;99.90
3784;DHT22;1907;49.238;9.262;2023-01-04T00:36:58;2.80;99.90
3784;DHT22;1907;49.238;9.262;2023-01-04T00:39:23;2.80;99.90
3784;DHT22;1907;49.238;9.262;2023-01-04T00:41:53;2.70;99.90
3784;DHT22;1907;49.238;9.262;2023-01-04T00:44:18;2.70;99.90
3784;DHT22;1907;49.238;9.262;2023-01-04T00:46:47;2.70;99.90
3784;DHT22;1907;49.238;9.262;2023-01-04T00:49:13;2.60;99.90
3784;DHT22;1907;49.238;9.262;2023-01-04T00:51:40;2.60;99.90
3784;DHT22;1907;49.238;9.262;2023-01-04T00:54:09;2.50;99.90
3784;DHT22;1907;49.238;9.262;2023-01-04T00:56:35;2.50;99.90
3784;DHT22;1907;49.238;9.262;2023-01-04T00:59:03;2.50;99.90
3784;DHT22;1907;49.238;9.262;2023-01-04T01:01:30;2.40;99.90
3784;DHT22;1907;49.238;9.262;2023-01-04T01:03:58;2.40;99.90
3784;DHT22;1907;49.238;9.262;2023-01-04T01:06:25;2.30;99.90
3784;DHT22;1907;49.238;9.262;2023-01-04T01:08:51;2.30;99.90
3784;DHT22;1907;49.238;9.262;2023-01-04T01:11:18;2.40;99.90
3784;DHT22;1907;49.238;9.262;2023-01-04T01:13:44;2.40;99.90
3784;DHT22;1907;49.238;9.262;2023-01-04T01:16:15;2.50;99.90
3784;DHT22;1907;49.238;9.262;2023-01-04T01:18:43;2.50;99.90
3784;DHT22;1907;49.238;9.262;2023-01-04T01:21:16;2.50;99.90
3784;DHT22;1907;49.238;9.262;2023-01-04T01:23:42;2.50;99.90
3784;DHT22;1907;49.238;9.262;2023-01-04T01:26:12;2.50;99.90
3784;DHT22;1907;49.238;9.262;2023-01-04T01:28:38;2.50;99.90
3784;DHT22;1907;49.238;9.262;2023-01-04T01:31:25;2.50;99.90
3784;DHT22;1907;49.238;9.262;2023-01-04T01:33:53;2.40;99.90
3784;DHT22;1907;49.238;9.262;2023-01-04T01:36:20;2.40;99.90
3784;DHT22;1907;49.238;9.262;2023-01-04T01:38:46;2.40;99.90
3784;DHT22;1907;49.238;9.262;2023-01-04T01:41:21;2.40;99.90
3784;DHT22;1907;49.238;9.262;2023-01-04T01:43:53;2.30;99.90
3784;DHT22;1907;49.238;9.262;2023-01-04T01:46:45;2.30;99.90
3784;DHT22;1907;49.238;9.262;2023-01-04T01:49:23;2.30;99.90
3784;DHT22;1907;49.238;9.262;2023-01-04T01:51:50;2.30;99.90
3784;DHT22;1907;49.238;9.262;2023-01-04T01:54:20;2.30;99.90
3784;DHT22;1907;49.238;9.262;2023-01-04T01:56:48;2.20;99.90
3784;DHT22;1907;49.238;9.262;2023-01-04T01:59:16;2.20;99.90
3784;DHT22;1907;49.238;9.262;2023-01-04T02:01:42;2.20;99.90
3784;DHT22;1907;49.238;9.262;2023-01-04T02:04:09;2.20;99.90
3784;DHT22;1907;49.238;9.262;2023-01-04T02:06:39;2.20;99.90
3784;DHT22;1907;49.238;9.262;2023-01-04T02:09:07;2.20;99.90
3784;DHT22;1907;49.238;9.262;2023-01-04T02:11:32;2.20;99.90
3784;DHT22;1907;49.238;9.262;2023-01-04T02:13:59;2.10;99.90
3784;DHT22;1907;49.238;9.262;2023-01-04T02:22:31;2.00;99.90
3784;DHT22;1907;49.238;9.262;2023-01-04T02:34:08;2.20;99.90
3784;DHT22;1907;49.238;9.262;2023-01-04T02:44:57;2.50;99.90
3784;DHT22;1907;49.238;9.262;2023-01-04T02:47:36;2.50;99.90
3784;DHT22;1907;49.238;9.262;2023-01-04T02:50:32;2.60;99.90
3784;DHT22;1907;49.238;9.262;2023-01-04T02:53:04;2.60;99.90
3784;DHT22;1907;49.238;9.262;2023-01-04T03:01:38;2.60;99.90
3784;DHT22;1907;49.238;9.262;2023-01-04T03:08:01;2.70;99.90
3784;DHT22;1907;49.238;9.262;2023-01-04T03:13:41;2.70;99.90
3784;DHT22;1907;49.238;9.262;2023-01-04T03:16:17;2.70;99.90
3784;DHT22;1907;49.238;9.262;2023-01-04T03:18:48;2.70;99.90
3784;DHT22;1907;49.238;9.262;2023-01-04T03:21:17;2.70;99.90
3784;DHT22;1907;49.238;9.262;2023-01-04T03:23:45;2.70;99.90
3784;DHT22;1907;49.238;9.262;2023-01-04T03:26:42;2.60;99.90
3784;DHT22;1907;49.238;9.262;2023-01-04T03:29:37;2.50;99.90
3784;DHT22;1907;49.238;9.262;2023-01-04T03:32:31;2.50;99.90
3784;DHT22;1907;49.238;9.262;2023-01-04T03:35:26;2.70;99.90
3784;DHT22;1907;49.238;9.262;2023-01-04T03:38:07;2.80;99.90
3784;DHT22;1907;49.238;9.262;2023-01-04T03:41:17;2.90;99.90
3784;DHT22;1907;49.238;9.262;2023-01-04T03:47:02;3.00;99.90
3784;DHT22;1907;49.238;9.262;2023-01-04T03:50:01;3.10;99.90
3784;DHT22;1907;49.238;9.262;2023-01-04T03:52:28;3.30;99.90
3784;DHT22;1907;49.238;9.262;2023-01-04T03:54:56;3.40;99.90
3784;DHT22;1907;49.238;9.262;2023-01-04T03:57:24;3.40;99.90
3784;DHT22;1907;49.238;9.262;2023-01-04T03:59:58;3.40;99.90
3784;DHT22;1907;49.238;9.262;2023-01-04T04:02:29;3.40;99.90
3784;DHT22;1907;49.238;9.262;2023-01-04T04:04:55;3.50;99.90
3784;DHT22;1907;49.238;9.262;2023-01-04T04:07:39;3.60;99.90
3784;DHT22;1907;49.238;9.262;2023-01-04T04:10:23;3.60;99.90
3784;DHT22;1907;49.238;9.262;2023-01-04T04:12:49;3.70;99.90
3784;DHT22;1907;49.238;9.262;2023-01-04T04:15:15;3.80;99.90
3784;DHT22;1907;49.238;9.262;2023-01-04T04:17:40;3.80;99.90
3784;DHT22;1907;49.238;9.262;2023-01-04T04:20:06;3.90;99.90
3784;DHT22;1907;49.238;9.262;2023-01-04T04:22:32;4.00;99.90
3784;DHT22;1907;49.238;9.262;2023-01-04T04:24:58;4.00;99.90
3784;DHT22;1907;49.238;9.262;2023-01-04T04:27:23;4.10;99.90
3784;DHT22;1907;49.238;9.262;2023-01-04T04:29:49;4.10;99.90
3784;DHT22;1907;49.238;9.262;2023-01-04T04:32:15;4.10;99.90
3784;DHT22;1907;49.238;9.262;2023-01-04T04:34:40;4.00;99.90
3784;DHT22;1907;49.238;9.262;2023-01-04T04:37:06;4.00;99.90
3784;DHT22;1907;49.238;9.262;2023-01-04T04:39:32;3.90;99.90
3784;DHT22;1907;49.238;9.262;2023-01-04T04:41:57;3.90;99.90
3784;DHT22;1907;49.238;9.262;2023-01-04T04:44:23;3.90;99.90
3784;DHT22;1907;49.238;9.262;2023-01-04T04:46:49;3.80;99.90
3784;DHT22;1907;49.238;9.262;2023-01-04T04:49:15;3.80;99.90
3784;DHT22;1907;49.238;9.262;2023-01-04T04:51:41;3.80;99.90
3784;DHT22;1907;49.238;9.262;2023-01-04T04:54:09;3.80;99.90
3784;DHT22;1907;49.238;9.262;2023-01-04T04:56:36;3.80;99.90
3784;DHT22;1907;49.238;9.262;2023-01-04T04:59:02;3.80;99.90
3784;DHT22;1907;49.238;9.262;2023-01-04T05:01:28;3.90;99.90
3784;DHT22;1907;49.238;9.262;2023-01-04T05:03:55;4.00;99.90
3784;DHT22;1907;49.238;9.262;2023-01-04T05:06:20;4.10;99.90
3784;DHT22;1907;49.238;9.262;2023-01-04T05:08:46;4.10;99.90
3784;DHT22;1907;49.238;9.262;2023-01-04T05:11:12;4.20;99.90
3784;DHT22;1907;49.238;9.262;2023-01-04T05:13:38;4.20;99.90
3784;DHT22;1907;49.238;9.262;2023-01-04T05:16:06;4.30;99.90
3784;DHT22;1907;49.238;9.262;2023-01-04T05:18:32;4.30;99.90
3784;DHT22;1907;49.238;9.262;2023-01-04T05:20:58;4.40;99.90
3784;DHT22;1907;49.238;9.262;2023-01-04T05:23:24;4.40;99.90
3784;DHT22;1907;49.238;9.262;2023-01-04T05:25:52;4.40;99.90
3784;DHT22;1907;49.238;9.262;2023-01-04T05:28:19;4.40;99.90
3784;DHT22;1907;49.238;9.262;2023-01-04T05:30:44;4.50;99.90
3784;DHT22;1907;49.238;9.262;2023-01-04T05:33:17;4.60;99.90
3784;DHT22;1907;49.238;9.262;2023-01-04T05:35:42;4.60;99.90
3784;DHT22;1907;49.238;9.262;2023-01-04T05:38:08;4.70;99.90
3784;DHT22;1907;49.238;9.262;2023-01-04T05:40:33;4.70;99.90
3784;DHT22;1907;49.238;9.262;2023-01-04T05:42:59;4.80;99.90
3784;DHT22;1907;49.238;9.262;2023-01-04T05:45:25;4.80;99.90
3784;DHT22;1907;49.238;9.262;2023-01-04T05:47:52;4.90;99.90
3784;DHT22;1907;49.238;9.262;2023-01-04T05:50:19;4.90;99.90
3784;DHT22;1907;49.238;9.262;2023-01-04T05:52:45;4.90;99.90
3784;DHT22;1907;49.238;9.262;2023-01-04T05:55:10;5.00;99.90
3784;DHT22;1907;49.238;9.262;2023-01-04T05:57:36;5.00;99.90
3784;DHT22;1907;49.238;9.262;2023-01-04T06:00:03;5.00;99.90
3784;DHT22;1907;49.238;9.262;2023-01-04T06:02:30;5.00;99.90
3784;DHT22;1907;49.238;9.262;2023-01-04T06:04:56;5.10;99.90
3784;DHT22;1907;49.238;9.262;2023-01-04T06:07:22;5.10;99.90
3784;DHT22;1907;49.238;9.262;2023-01-04T06:09:48;5.20;99.90
3784;DHT22;1907;49.238;9.262;2023-01-04T06:12:14;5.20;99.90
3784;DHT22;1907;49.238;9.262;2023-01-04T06:14:40;5.20;99.90
3784;DHT22;1907;49.238;9.262;2023-01-04T06:17:06;5.20;99.90
3784;DHT22;1907;49.238;9.262;2023-01-04T06:19:32;5.30;99.90
3784;DHT22;1907;49.238;9.262;2023-01-04T06:21:58;5.30;99.90
3784;DHT22;1907;49.238;9.262;2023-01-04T06:24:24;5.40;99.90
3784;DHT22;1907;49.238;9.262;2023-01-04T06:26:50;5.40;99.90
3784;DHT22;1907;49.238;9.262;2023-01-04T06:29:15;5.50;99.90
3784;DHT22;1907;49.238;9.262;2023-01-04T06:31:41;5.50;99.90
3784;DHT22;1907;49.238;9.262;2023-01-04T06:34:09;5.60;99.90
3784;DHT22;1907;49.238;9.262;2023-01-04T06:36:34;5.70;99.90
3784;DHT22;1907;49.238;9.262;2023-01-04T06:39:00;5.70;99.90
3784;DHT22;1907;49.238;9.262;2023-01-04T06:41:26;5.80;99.90
3784;DHT22;1907;49.238;9.262;2023-01-04T06:43:51;5.80;99.90
3784;DHT22;1907;49.238;9.262;2023-01-04T06:46:17;5.90;99.90
3784;DHT22;1907;49.238;9.262;2023-01-04T06:48:43;5.90;99.90
3784;DHT22;1907;49.238;9.262;2023-01-04T06:51:09;6.00;99.90
3784;DHT22;1907;49.238;9.262;2023-01-04T06:53:34;6.00;99.90
3784;DHT22;1907;49.238;9.262;2023-01-04T06:56:00;6.10;99.90
3784;DHT22;1907;49.238;9.262;2023-01-04T06:58:25;6.10;99.90
3784;DHT22;1907;49.238;9.262;2023-01-04T07:00:51;6.10;99.90
3784;DHT22;1907;49.238;9.262;2023-01-04T07:03:17;6.10;99.90
3784;DHT22;1907;49.238;9.262;2023-01-04T07:05:43;6.10;99.90
3784;DHT22;1907;49.238;9.262;2023-01-04T07:08:10;6.10;99.90
3784;DHT22;1907;49.238;9.262;2023-01-04T07:10:35;6.20;99.90
3784;DHT22;1907;49.238;9.262;2023-01-04T07:13:01;6.20;99.90
3784;DHT22;1907;49.238;9.262;2023-01-04T07:15:27;6.20;99.90
3784;DHT22;1907;49.238;9.262;2023-01-04T07:17:52;6.30;99.90
3784;DHT22;1907;49.238;9.262;2023-01-04T07:20:18;6.30;99.90
3784;DHT22;1907;49.238;9.262;2023-01-04T07:22:44;6.40;99.90
3784;DHT22;1907;49.238;9.262;2023-01-04T07:25:09;6.40;99.90
3784;DHT22;1907;49.238;9.262;2023-01-04T07:27:35;6.40;99.90
3784;DHT22;1907;49.238;9.262;2023-01-04T07:30:00;6.40;99.90
3784;DHT22;1907;49.238;9.262;2023-01-04T07:32:26;6.40;99.90
3784;DHT22;1907;49.238;9.262;2023-01-04T07:34:51;6.40;99.90
3784;DHT22;1907;49.238;9.262;2023-01-04T07:37:17;6.40;99.90
3784;DHT22;1907;49.238;9.262;2023-01-04T07:39:43;6.40;99.90
3784;DHT22;1907;49.238;9.262;2023-01-04T07:42:09;6.50;99.90
3784;DHT22;1907;49.238;9.262;2023-01-04T07:44:35;6.50;99.90
3784;DHT22;1907;49.238;9.262;2023-01-04T07:47:02;6.50;99.90
3784;DHT22;1907;49.238;9.262;2023-01-04T07:49:28;6.50;99.90
3784;DHT22;1907;49.238;9.262;2023-01-04T07:51:53;6.50;99.90
3784;DHT22;1907;49.238;9.262;2023-01-04T07:54:19;6.50;99.90
3784;DHT22;1907;49.238;9.262;2023-01-04T07:56:45;6.50;99.90
3784;DHT22;1907;49.238;9.262;2023-01-04T07:59:12;6.60;99.90
3784;DHT22;1907;49.238;9.262;2023-01-04T08:01:38;6.70;99.90
3784;DHT22;1907;49.238;9.262;2023-01-04T08:04:05;6.70;99.90
3784;DHT22;1907;49.238;9.262;2023-01-04T08:06:31;6.70;99.90
3784;DHT22;1907;49.238;9.262;2023-01-04T08:08:57;6.80;99.90
3784;DHT22;1907;49.238;9.262;2023-01-04T08:11:23;6.80;99.90
3784;DHT22;1907;49.238;9.262;2023-01-04T08:13:50;6.80;99.90
3784;DHT22;1907;49.238;9.262;2023-01-04T08:18:55;6.90;99.90
3784;DHT22;1907;49.238;9.262;2023-01-04T08:21:22;7.00;99.90
3784;DHT22;1907;49.238;9.262;2023-01-04T08:23:48;7.00;99.90
3784;DHT22;1907;49.238;9.262;2023-01-04T08:26:15;7.10;99.90
3784;DHT22;1907;49.238;9.262;2023-01-04T08:28:41;7.10;99.90
3784;DHT22;1907;49.238;9.262;2023-01-04T08:31:27;7.20;99.90
3784;DHT22;1907;49.238;9.262;2023-01-04T08:33:54;7.30;99.90
3784;DHT22;1907;49.238;9.262;2023-01-04T08:36:28;7.40;99.90
3784;DHT22;1907;49.238;9.262;2023-01-04T08:38:56;7.40;99.90
3784;DHT22;1907;49.238;9.262;2023-01-04T08:41:22;7.50;99.90
3784;DHT22;1907;49.238;9.262;2023-01-04T08:43:48;7.50;99.90
3784;DHT22;1907;49.238;9.262;2023-01-04T08:46:14;7.60;99.90
3784;DHT22;1907;49.238;9.262;2023-01-04T08:48:40;7.60;99.90
3784;DHT22;1907;49.238;9.262;2023-01-04T08:51:11;7.70;99.90
3784;DHT22;1907;49.238;9.262;2023-01-04T08:53:37;7.60;99.90
3784;DHT22;1907;49.238;9.262;2023-01-04T08:56:03;7.60;99.90
3784;DHT22;1907;49.238;9.262;2023-01-04T08:58:30;7.70;99.90
3784;DHT22;1907;49.238;9.262;2023-01-04T09:01:00;7.70;99.90
3784;DHT22;1907;49.238;9.262;2023-01-04T09:03:27;7.70;99.90
3784;DHT22;1907;49.238;9.262;2023-01-04T09:05:52;7.70;99.90
3784;DHT22;1907;49.238;9.262;2023-01-04T09:08:18;7.70;99.90
3784;DHT22;1907;49.238;9.262;2023-01-04T09:10:44;7.70;99.90
3784;DHT22;1907;49.238;9.262;2023-01-04T09:13:09;7.70;99.90
3784;DHT22;1907;49.238;9.262;2023-01-04T09:15:35;7.70;99.90
3784;DHT22;1907;49.238;9.262;2023-01-04T09:18:01;7.80;99.90
3784;DHT22;1907;49.238;9.262;2023-01-04T09:20:27;7.80;99.90
3784;DHT22;1907;49.238;9.262;2023-01-04T09:22:53;7.80;99.90
3784;DHT22;1907;49.238;9.262;2023-01-04T09:25:20;7.80;99.90
3784;DHT22;1907;49.238;9.262;2023-01-04T09:27:46;7.80;99.90
3784;DHT22;1907;49.238;9.262;2023-01-04T09:30:12;7.90;99.90
3784;DHT22;1907;49.238;9.262;2023-01-04T09:32:37;7.90;99.90
3784;DHT22;1907;49.238;9.262;2023-01-04T09:35:03;8.00;99.90
3784;DHT22;1907;49.238;9.262;2023-01-04T09:37:29;8.10;99.90
3784;DHT22;1907;49.238;9.262;2023-01-04T09:39:54;8.10;99.90
3784;DHT22;1907;49.238;9.262;2023-01-04T09:42:39;8.10;99.90
3784;DHT22;1907;49.238;9.262;2023-01-04T09:45:20;8.10;99.90
3784;DHT22;1907;49.238;9.262;2023-01-04T09:47:59;8.20;99.90
3784;DHT22;1907;49.238;9.262;2023-01-04T09:50:32;8.30;99.90
3784;DHT22;1907;49.238;9.262;2023-01-04T09:53:27;8.40;99.90
3784;DHT22;1907;49.238;9.262;2023-01-04T09:55:56;8.50;99.90
3784;DHT22;1907;49.238;9.262;2023-01-04T09:58:34;8.40;99.90
3784;DHT22;1907;49.238;9.262;2023-01-04T10:01:04;8.50;99.90
3784;DHT22;1907;49.238;9.262;2023-01-04T10:03:36;8.50;99.90
3784;DHT22;1907;49.238;9.262;2023-01-04T10:06:05;8.60;99.90
3784;DHT22;1907;49.238;9.262;2023-01-04T10:08:31;8.60;99.90
3784;DHT22;1907;49.238;9.262;2023-01-04T10:13:57;8.70;99.90
3784;DHT22;1907;49.238;9.262;2023-01-04T10:27:31;8.70;99.90
3784;DHT22;1907;49.238;9.262;2023-01-04T10:32:41;9.00;99.90
3784;DHT22;1907;49.238;9.262;2023-01-04T10:35:22;9.10;99.90
3784;DHT22;1907;49.238;9.262;2023-01-04T10:37:51;9.10;99.90
3784;DHT22;1907;49.238;9.262;2023-01-04T10:40:18;9.20;99.90
3784;DHT22;1907;49.238;9.262;2023-01-04T10:45:31;9.50;99.90
3784;DHT22;1907;49.238;9.262;2023-01-04T10:48:11;9.60;99.90
3784;DHT22;1907;49.238;9.262;2023-01-04T10:50:58;9.70;99.90
3784;DHT22;1907;49.238;9.262;2023-01-04T10:53:35;9.90;99.90
3784;DHT22;1907;49.238;9.262;2023-01-04T11:01:32;10.00;99.90
3784;DHT22;1907;49.238;9.262;2023-01-04T11:07:19;9.90;99.90
3784;DHT22;1907;49.238;9.262;2023-01-04T11:12:12;10.00;99.90
3784;DHT22;1907;49.238;9.262;2023-01-04T11:14:39;9.90;99.90
3784;DHT22;1907;49.238;9.262;2023-01-04T11:17:06;9.90;99.90
3784;DHT22;1907;49.238;9.262;2023-01-04T11:19:33;10.00;99.90
3784;DHT22;1907;49.238;9.262;2023-01-04T11:25:00;10.00;99.90
3784;DHT22;1907;49.238;9.262;2023-01-04T11:27:29;10.00;99.90
3784;DHT22;1907;49.238;9.262;2023-01-04T11:29:57;9.90;99.90
3784;DHT22;1907;49.238;9.262;2023-01-04T11:32:40;9.90;99.90
3784;DHT22;1907;49.238;9.262;2023-01-04T11:35:07;9.80;99.90
3784;DHT22;1907;49.238;9.262;2023-01-04T11:37:35;9.80;99.90
3784;DHT22;1907;49.238;9.262;2023-01-04T11:42:48;9.70;99.90
3784;DHT22;1907;49.238;9.262;2023-01-04T11:45:17;9.70;99.90
3784;DHT22;1907;49.238;9.262;2023-01-04T11:47:51;9.70;99.90
3784;DHT22;1907;49.238;9.262;2023-01-04T11:53:01;9.80;99.90
3784;DHT22;1907;49.238;9.262;2023-01-04T11:55:29;9.80;99.90
3784;DHT22;1907;49.238;9.262;2023-01-04T11:58:13;9.90;99.90
3784;DHT22;1907;49.238;9.262;2023-01-04T12:00:56;9.90;99.90
3784;DHT22;1907;49.238;9.262;2023-01-04T12:05:50;9.80;99.90
3784;DHT22;1907;49.238;9.262;2023-01-04T12:08:26;9.70;99.90
3784;DHT22;1907;49.238;9.262;2023-01-04T12:10:53;9.60;99.90
3784;DHT22;1907;49.238;9.262;2023-01-04T12:13:19;9.50;99.90
3784;DHT22;1907;49.238;9.262;2023-01-04T12:18:34;9.50;99.90
3784;DHT22;1907;49.238;9.262;2023-01-04T12:21:01;9.50;99.90
3784;DHT22;1907;49.238;9.262;2023-01-04T12:23:27;9.50;99.90
3784;DHT22;1907;49.238;9.262;2023-01-04T12:25:53;9.50;99.90
3784;DHT22;1907;49.238;9.262;2023-01-04T12:28:35;9.50;99.90
3784;DHT22;1907;49.238;9.262;2023-01-04T12:33:46;9.60;99.90
3784;DHT22;1907;49.238;9.262;2023-01-04T12:36:20;9.70;99.90
3784;DHT22;1907;49.238;9.262;2023-01-04T12:43:59;9.80;99.90
3784;DHT22;1907;49.238;9.262;2023-01-04T12:54:52;10.00;99.90
3784;DHT22;1907;49.238;9.262;2023-01-04T13:00:13;10.10;99.90
3784;DHT22;1907;49.238;9.262;2023-01-04T13:02:45;10.20;99.90
3784;DHT22;1907;49.238;9.262;2023-01-04T13:17:39;10.30;99.90
3784;DHT22;1907;49.238;9.262;2023-01-04T13:19:42;10.30;99.90
3784;DHT22;1907;49.238;9.262;2023-01-04T13:22:14;10.20;99.90
3784;DHT22;1907;49.238;9.262;2023-01-04T13:24:42;10.20;99.90
3784;DHT22;1907;49.238;9.262;2023-01-04T13:29:41;10.20;99.90
3784;DHT22;1907;49.238;9.262;2023-01-04T13:32:25;10.20;99.90
3784;DHT22;1907;49.238;9.262;2023-01-04T13:34:53;10.20;99.90
3784;DHT22;1907;49.238;9.262;2023-01-04T13:37:32;10.30;99.90
3784;DHT22;1907;49.238;9.262;2023-01-04T13:42:46;10.40;99.90
3784;DHT22;1907;49.238;9.262;2023-01-04T13:45:29;10.40;99.90
3784;DHT22;1907;49.238;9.262;2023-01-04T13:47:59;10.40;99.90
3784;DHT22;1907;49.238;9.262;2023-01-04T13:52:57;10.30;99.90
3784;DHT22;1907;49.238;9.262;2023-01-04T13:55:31;10.30;99.90
3784;DHT22;1907;49.238;9.262;2023-01-04T13:58:02;10.30;99.90
3784;DHT22;1907;49.238;9.262;2023-01-04T14:03:13;10.30;99.90
3784;DHT22;1907;49.238;9.262;2023-01-04T14:05:48;10.40;99.90
3784;DHT22;1907;49.238;9.262;2023-01-04T14:08:30;10.30;99.90
3784;DHT22;1907;49.238;9.262;2023-01-04T14:10:56;10.30;99.90
3784;DHT22;1907;49.238;9.262;2023-01-04T14:13:22;10.30;99.90
3784;DHT22;1907;49.238;9.262;2023-01-04T14:16:12;10.30;99.90
3784;DHT22;1907;49.238;9.262;2023-01-04T14:18:38;10.30;99.90
3784;DHT22;1907;49.238;9.262;2023-01-04T14:21:12;10.30;99.90
3784;DHT22;1907;49.238;9.262;2023-01-04T14:23:38;10.30;99.90
3784;DHT22;1907;49.238;9.262;2023-01-04T14:26:04;10.30;99.90
3784;DHT22;1907;49.238;9.262;2023-01-04T14:28:34;10.30;99.90
3784;DHT22;1907;49.238;9.262;2023-01-04T14:38:53;10.20;99.90
3784;DHT22;1907;49.238;9.262;2023-01-04T14:41:35;10.20;99.90
3784;DHT22;1907;49.238;9.262;2023-01-04T14:46:34;10.20;99.90
3784;DHT22;1907;49.238;9.262;2023-01-04T14:49:00;10.20;99.90
3784;DHT22;1907;49.238;9.262;2023-01-04T14:51:50;10.30;99.90
3784;DHT22;1907;49.238;9.262;2023-01-04T14:54:17;10.30;99.90
3784;DHT22;1907;49.238;9.262;2023-01-04T14:56:43;10.30;99.90
3784;DHT22;1907;49.238;9.262;2023-01-04T14:59:09;10.30;99.90
3784;DHT22;1907;49.238;9.262;2023-01-04T15:01:35;10.30;99.90
3784;DHT22;1907;49.238;9.262;2023-01-04T15:04:02;10.40;99.90
3784;DHT22;1907;49.238;9.262;2023-01-04T15:06:27;10.30;99.90
3784;DHT22;1907;49.238;9.262;2023-01-04T15:08:53;10.30;99.90
3784;DHT22;1907;49.238;9.262;2023-01-04T15:11:19;10.30;99.90
3784;DHT22;1907;49.238;9.262;2023-01-04T15:13:44;10.30;99.90
3784;DHT22;1907;49.238;9.262;2023-01-04T15:16:13;10.20;99.90
3784;DHT22;1907;49.238;9.262;2023-01-04T15:18:39;10.20;99.90
3784;DHT22;1907;49.238;9.262;2023-01-04T15:21:05;10.10;99.90
3784;DHT22;1907;49.238;9.262;2023-01-04T15:23:31;10.10;99.90
3784;DHT22;1907;49.238;9.262;2023-01-04T15:25:57;10.10;99.90
3784;DHT22;1907;49.238;9.262;2023-01-04T15:28:26;10.10;99.90
3784;DHT22;1907;49.238;9.262;2023-01-04T15:30:52;10.00;99.90
3784;DHT22;1907;49.238;9.262;2023-01-04T15:33:18;10.00;99.90
3784;DHT22;1907;49.238;9.262;2023-01-04T15:35:44;10.00;99.90
3784;DHT22;1907;49.238;9.262;2023-01-04T15:38:10;10.00;99.90
3784;DHT22;1907;49.238;9.262;2023-01-04T15:40:35;10.00;99.90
3784;DHT22;1907;49.238;9.262;2023-01-04T15:43:01;10.00;99.90
3784;DHT22;1907;49.238;9.262;2023-01-04T15:47:54;10.00;99.90
3784;DHT22;1907;49.238;9.262;2023-01-04T15:50:23;10.00;99.90
3784;DHT22;1907;49.238;9.262;2023-01-04T15:52:49;10.00;99.90
3784;DHT22;1907;49.238;9.262;2023-01-04T15:55:14;10.00;99.90
3784;DHT22;1907;49.238;9.262;2023-01-04T15:57:40;10.00;99.90
3784;DHT22;1907;49.238;9.262;2023-01-04T16:00:06;10.00;99.90
3784;DHT22;1907;49.238;9.262;2023-01-04T16:02:32;10.00;99.90
3784;DHT22;1907;49.238;9.262;2023-01-04T16:04:57;10.00;99.90
3784;DHT22;1907;49.238;9.262;2023-01-04T16:07:23;10.10;99.90
3784;DHT22;1907;49.238;9.262;2023-01-04T16:09:49;10.10;99.90
3784;DHT22;1907;49.238;9.262;2023-01-04T16:12:15;10.10;99.90
3784;DHT22;1907;49.238;9.262;2023-01-04T16:15:00;10.10;99.90
3784;DHT22;1907;49.238;9.262;2023-01-04T16:17:25;10.10;99.90
3784;DHT22;1907;49.238;9.262;2023-01-04T16:19:51;10.10;99.90
3784;DHT22;1907;49.238;9.262;2023-01-04T16:22:16;10.10;99.90
3784;DHT22;1907;49.238;9.262;2023-01-04T16:24:42;10.20;99.90
3784;DHT22;1907;49.238;9.262;2023-01-04T16:27:07;10.20;99.90
3784;DHT22;1907;49.238;9.262;2023-01-04T16:29:34;10.20;99.90
3784;DHT22;1907;49.238;9.262;2023-01-04T16:32:00;10.30;99.90
3784;DHT22;1907;49.238;9.262;2023-01-04T16:34:25;10.30;99.90
3784;DHT22;1907;49.238;9.262;2023-01-04T16:36:51;10.30;99.90
3784;DHT22;1907;49.238;9.262;2023-01-04T16:39:16;10.30;99.90
3784;DHT22;1907;49.238;9.262;2023-01-04T16:41:42;10.20;99.90
3784;DHT22;1907;49.238;9.262;2023-01-04T16:44:09;10.20;99.90
3784;DHT22;1907;49.238;9.262;2023-01-04T16:46:38;10.30;99.90
3784;DHT22;1907;49.238;9.262;2023-01-04T16:49:30;10.30;99.90
3784;DHT22;1907;49.238;9.262;2023-01-04T16:51:55;10.30;99.90
3784;DHT22;1907;49.238;9.262;2023-01-04T16:54:21;10.30;99.90
3784;DHT22;1907;49.238;9.262;2023-01-04T16:56:46;10.40;99.90
3784;DHT22;1907;49.238;9.262;2023-01-04T16:59:15;10.40;99.90
3784;DHT22;1907;49.238;9.262;2023-01-04T17:01:42;10.40;99.90
3784;DHT22;1907;49.238;9.262;2023-01-04T17:04:08;10.40;99.90
3784;DHT22;1907;49.238;9.262;2023-01-04T17:06:39;10.40;99.90
3784;DHT22;1907;49.238;9.262;2023-01-04T17:09:06;10.40;99.90
3784;DHT22;1907;49.238;9.262;2023-01-04T17:11:34;10.40;99.90
3784;DHT22;1907;49.238;9.262;2023-01-04T17:14:01;10.40;99.90
3784;DHT22;1907;49.238;9.262;2023-01-04T17:16:27;10.40;99.90
3784;DHT22;1907;49.238;9.262;2023-01-04T17:18:54;10.40;99.90
3784;DHT22;1907;49.238;9.262;2023-01-04T17:21:22;10.40;99.90
3784;DHT22;1907;49.238;9.262;2023-01-04T17:23:51;10.40;99.90
3784;DHT22;1907;49.238;9.262;2023-01-04T17:26:23;10.40;99.90
3784;DHT22;1907;49.238;9.262;2023-01-04T17:28:49;10.50;99.90
3784;DHT22;1907;49.238;9.262;2023-01-04T17:31:20;10.50;99.90
3784;DHT22;1907;49.238;9.262;2023-01-04T17:33:49;10.50;99.90
3784;DHT22;1907;49.238;9.262;2023-01-04T17:36:17;10.50;99.90
3784;DHT22;1907;49.238;9.262;2023-01-04T17:38:44;10.60;99.90
3784;DHT22;1907;49.238;9.262;2023-01-04T17:41:13;10.60;99.90
3784;DHT22;1907;49.238;9.262;2023-01-04T17:43:40;10.60;99.90
3784;DHT22;1907;49.238;9.262;2023-01-04T17:46:10;10.70;99.90
3784;DHT22;1907;49.238;9.262;2023-01-04T17:48:36;10.70;99.90
3784;DHT22;1907;49.238;9.262;2023-01-04T17:51:09;10.60;99.90
3784;DHT22;1907;49.238;9.262;2023-01-04T17:53:35;10.70;99.90
3784;DHT22;1907;49.238;9.262;2023-01-04T17:56:06;10.70;99.90
3784;DHT22;1907;49.238;9.262;2023-01-04T17:58:32;10.70;99.90
3784;DHT22;1907;49.238;9.262;2023-01-04T18:00:59;10.70;99.90
3784;DHT22;1907;49.238;9.262;2023-01-04T18:03:25;10.70;99.90
3784;DHT22;1907;49.238;9.262;2023-01-04T18:05:54;10.70;99.90
3784;DHT22;1907;49.238;9.262;2023-01-04T18:08:20;10.70;99.90
3784;DHT22;1907;49.238;9.262;2023-01-04T18:10:46;10.70;99.90
3784;DHT22;1907;49.238;9.262;2023-01-04T18:13:11;10.70;99.90
3784;DHT22;1907;49.238;9.262;2023-01-04T18:15:37;10.70;99.90
3784;DHT22;1907;49.238;9.262;2023-01-04T18:18:03;10.70;99.90
3784;DHT22;1907;49.238;9.262;2023-01-04T18:20:29;10.70;99.90
3784;DHT22;1907;49.238;9.262;2023-01-04T18:22:55;10.80;99.90
3784;DHT22;1907;49.238;9.262;2023-01-04T18:25:21;10.80;99.90
3784;DHT22;1907;49.238;9.262;2023-01-04T18:27:47;10.80;99.90
3784;DHT22;1907;49.238;9.262;2023-01-04T18:30:12;10.80;99.90
3784;DHT22;1907;49.238;9.262;2023-01-04T18:32:38;10.80;99.90
3784;DHT22;1907;49.238;9.262;2023-01-04T18:35:04;10.70;99.90
3784;DHT22;1907;49.238;9.262;2023-01-04T18:37:31;10.70;99.90
3784;DHT22;1907;49.238;9.262;2023-01-04T18:39:57;10.70;99.90
3784;DHT22;1907;49.238;9.262;2023-01-04T18:42:23;10.70;99.90